createdAt,value
2022-09-13T00:01:58.922Z,93.43
2022-09-13T00:04:25.635Z,93.13
2022-09-13T00:06:52.193Z,92.89
2022-09-13T00:09:18.697Z,93.05
2022-09-13T00:11:45.234Z,93.15
2022-09-13T00:14:13.108Z,92.90
2022-09-13T00:16:39.658Z,92.61
2022-09-13T00:19:06.218Z,92.10
2022-09-13T00:21:32.816Z,91.66
2022-09-13T00:23:59.334Z,92.74
2022-09-13T00:26:27.840Z,92.84
2022-09-13T00:28:56.497Z,93.10
2022-09-13T00:31:26.105Z,93.25
2022-09-13T00:33:53.001Z,93.78
2022-09-13T00:36:19.912Z,93.46
2022-09-13T00:38:46.562Z,93.69
2022-09-13T00:41:15.065Z,93.82
2022-09-13T00:43:45.400Z,93.91
2022-09-13T00:46:16.271Z,95.28
2022-09-13T00:48:46.008Z,96.66
2022-09-13T00:51:13.604Z,97.15
2022-09-13T00:53:44.278Z,97.57
2022-09-13T00:56:15.113Z,97.87
2022-09-13T00:58:45.246Z,97.61
2022-09-13T01:01:14.447Z,97.41
2022-09-13T01:03:42.810Z,97.04
2022-09-13T01:06:14.651Z,96.98
2022-09-13T01:08:45.458Z,96.99
2022-09-13T01:11:20.699Z,96.96
2022-09-13T01:13:47.928Z,96.97
2022-09-13T01:16:14.545Z,96.34
2022-09-13T01:18:41.099Z,95.72
2022-09-13T01:21:42.874Z,95.24
2022-09-13T01:24:23.451Z,94.75
2022-09-13T01:27:23.728Z,94.51
2022-09-13T01:30:10.947Z,95.01
2022-09-13T01:32:51.023Z,94.97
2022-09-13T01:35:28.889Z,95.47
2022-09-13T01:38:02.512Z,95.13
2022-09-13T01:40:43.824Z,95.47
2022-09-13T01:43:22.625Z,95.79
2022-09-13T01:45:56.042Z,95.46
2022-09-13T01:48:30.070Z,94.59
2022-09-13T01:51:04.147Z,93.67
2022-09-13T01:53:35.915Z,93.78
2022-09-13T01:56:10.611Z,94.04
2022-09-13T01:58:41.827Z,94.88
2022-09-13T02:01:15.119Z,95.38
2022-09-13T02:03:47.921Z,95.49
2022-09-13T02:06:20.286Z,95.58
2022-09-13T02:08:51.068Z,96.04
2022-09-13T02:11:18.918Z,95.94
2022-09-13T02:13:49.325Z,95.58
2022-09-13T02:16:26.421Z,95.51
2022-09-13T02:18:57.079Z,95.51
2022-09-13T02:21:28.674Z,95.06
2022-09-13T02:24:00.650Z,94.62
2022-09-13T02:26:29.135Z,94.28
2022-09-13T02:29:00.158Z,94.45
2022-09-13T02:31:33.693Z,94.39
2022-09-13T02:34:04.640Z,94.25
2022-09-13T02:36:35.530Z,93.99
2022-09-13T02:39:04.709Z,93.85
2022-09-13T02:41:37.336Z,94.00
2022-09-13T02:44:11.112Z,93.86
2022-09-13T02:47:09.466Z,93.79
2022-09-13T02:49:47.791Z,94.38
2022-09-13T02:52:23.517Z,94.39
2022-09-13T02:54:57.328Z,94.69
2022-09-13T02:57:29.799Z,94.34
2022-09-13T02:59:56.341Z,94.51
2022-09-13T03:02:33.017Z,94.88
2022-09-13T03:05:00.985Z,95.11
2022-09-13T03:07:28.307Z,95.33
2022-09-13T03:10:00.558Z,94.64
2022-09-13T03:12:43.947Z,94.50
2022-09-13T03:15:19.653Z,94.52
2022-09-13T03:18:00.301Z,94.52
2022-09-13T03:20:40.885Z,94.35
2022-09-13T03:23:21.997Z,94.31
2022-09-13T03:26:08.072Z,93.78
2022-09-13T03:28:43.374Z,93.12
2022-09-13T03:31:21.100Z,92.91
2022-09-13T03:33:56.589Z,93.11
2022-09-13T03:36:33.087Z,93.21
2022-09-13T03:39:11.907Z,93.74
2022-09-13T03:41:46.554Z,94.05
2022-09-13T03:44:16.734Z,94.57
2022-09-13T03:46:46.242Z,95.12
2022-09-13T03:49:15.936Z,94.92
2022-09-13T03:51:45.108Z,94.61
2022-09-13T03:54:19.132Z,93.38
2022-09-13T03:57:07.816Z,93.15
2022-09-13T03:59:34.590Z,92.63
2022-09-13T04:02:01.103Z,93.04
2022-09-13T04:04:28.986Z,93.53
2022-09-13T04:06:55.494Z,93.59
2022-09-13T04:09:22.023Z,93.12
2022-09-13T04:11:48.668Z,93.25
2022-09-13T04:14:15.188Z,94.15
2022-09-13T04:16:42.226Z,94.57
2022-09-13T04:19:08.789Z,95.01
2022-09-13T04:21:36.637Z,95.44
2022-09-13T04:24:03.345Z,95.59
2022-09-13T04:26:29.839Z,95.74
2022-09-13T04:28:56.359Z,95.69
2022-09-13T04:31:22.932Z,95.53
2022-09-13T04:33:49.600Z,95.27
2022-09-13T04:36:16.092Z,95.42
2022-09-13T04:38:46.369Z,95.45
2022-09-13T04:41:12.867Z,95.82
2022-09-13T04:43:39.403Z,95.85
2022-09-13T04:46:05.916Z,95.64
2022-09-13T04:48:32.469Z,95.01
2022-09-13T04:51:02.004Z,94.85
2022-09-13T04:53:28.503Z,94.65
2022-09-13T04:56:00.437Z,94.10
2022-09-13T04:58:26.760Z,94.30
2022-09-13T05:00:53.348Z,94.10
2022-09-13T05:03:19.905Z,93.91
2022-09-13T05:05:46.391Z,94.13
2022-09-13T05:08:12.905Z,94.51
2022-09-13T05:10:39.409Z,95.06
2022-09-13T05:13:07.262Z,95.35
2022-09-13T05:15:33.761Z,95.67
2022-09-13T05:18:00.274Z,95.06
2022-09-13T05:20:26.742Z,94.91
2022-09-13T05:22:53.235Z,94.99
2022-09-13T05:25:22.956Z,95.36
2022-09-13T05:27:51.941Z,95.12
2022-09-13T05:30:19.795Z,95.31
2022-09-13T05:32:46.295Z,95.04
2022-09-13T05:35:12.849Z,95.04
2022-09-13T05:37:39.412Z,94.87
2022-09-13T05:40:11.773Z,95.18
2022-09-13T05:42:38.909Z,95.45
2022-09-13T05:45:06.704Z,95.48
2022-09-13T05:47:34.505Z,95.54
2022-09-13T05:50:39.518Z,95.93
2022-09-13T05:52:52.035Z,96.52
2022-09-13T05:55:18.528Z,96.61
2022-09-13T05:57:45.006Z,96.22
2022-09-13T06:00:12.460Z,96.52
2022-09-13T06:02:40.985Z,96.66
2022-09-13T06:05:08.400Z,97.96
2022-09-13T06:07:34.856Z,98.45
2022-09-13T06:10:01.343Z,98.34
2022-09-13T06:12:27.863Z,98.04
2022-09-13T06:14:54.329Z,97.94
2022-09-13T06:17:20.826Z,97.54
2022-09-13T06:19:48.649Z,98.33
2022-09-13T06:22:15.112Z,98.77
2022-09-13T06:24:41.595Z,97.82
2022-09-13T06:27:08.107Z,97.26
2022-09-13T06:29:34.602Z,96.58
2022-09-13T06:32:01.108Z,95.06
2022-09-13T06:34:31.155Z,94.63
2022-09-13T06:36:59.331Z,93.93
2022-09-13T06:39:25.819Z,93.02
2022-09-13T06:41:52.299Z,92.96
2022-09-13T06:44:18.797Z,93.80
2022-09-13T06:46:45.313Z,94.27
2022-09-13T06:49:11.822Z,94.09
2022-09-13T06:51:38.285Z,93.59
2022-09-13T06:54:06.155Z,93.33
2022-09-13T06:56:34.251Z,92.68
2022-09-13T06:59:02.820Z,91.59
2022-09-13T07:01:31.009Z,92.95
2022-09-13T07:04:01.003Z,92.93
2022-09-13T07:06:29.935Z,93.89
2022-09-13T07:08:58.016Z,92.72
2022-09-13T07:11:29.102Z,91.59
2022-09-13T07:13:57.363Z,92.17
2022-09-13T07:16:25.976Z,91.45
2022-09-13T07:18:53.183Z,91.32
2022-09-13T07:21:20.054Z,91.85
2022-09-13T07:23:46.599Z,91.38
2022-09-13T07:26:13.354Z,90.13
2022-09-13T07:28:43.291Z,90.29
2022-09-13T07:31:12.358Z,90.60
2022-09-13T07:33:40.058Z,91.24
2022-09-13T07:36:07.981Z,90.08
2022-09-13T07:38:35.815Z,88.53
2022-09-13T07:41:03.373Z,88.46
2022-09-13T07:43:29.882Z,86.70
2022-09-13T07:45:59.197Z,84.38
2022-09-13T07:48:30.469Z,84.95
2022-09-13T07:51:01.492Z,85.16
2022-09-13T07:53:28.413Z,85.67
2022-09-13T07:55:59.498Z,83.19
2022-09-13T07:58:26.002Z,83.35
2022-09-13T08:00:52.528Z,84.38
2022-09-13T08:03:20.382Z,83.89
2022-09-13T08:05:46.922Z,83.38
2022-09-13T08:08:13.424Z,83.50
2022-09-13T08:10:40.023Z,83.79
2022-09-13T08:13:06.570Z,82.71
2022-09-13T08:15:33.579Z,82.66
2022-09-13T08:18:00.152Z,82.23
2022-09-13T08:20:28.188Z,82.47
2022-09-13T08:22:55.119Z,81.93
2022-09-13T08:25:21.693Z,81.94
2022-09-13T08:27:48.183Z,79.75
2022-09-13T08:30:14.909Z,80.50
2022-09-13T08:32:41.413Z,79.15
2022-09-13T08:35:08.456Z,79.59
2022-09-13T08:37:36.336Z,78.70
2022-09-13T08:40:03.444Z,78.88
2022-09-13T08:42:50.765Z,78.69
2022-09-13T08:45:17.596Z,78.17
2022-09-13T08:47:50.414Z,77.84
2022-09-13T08:50:21.390Z,77.68
2022-09-13T08:52:58.544Z,76.67
2022-09-13T08:55:36.171Z,76.93
2022-09-13T08:58:12.445Z,75.36
2022-09-13T09:00:40.964Z,74.01
2022-09-13T09:03:19.527Z,74.29
2022-09-13T09:05:48.232Z,73.70
2022-09-13T09:08:29.834Z,75.17
2022-09-13T09:10:59.031Z,75.16
2022-09-13T09:13:29.566Z,74.28
2022-09-13T09:16:00.704Z,74.11
2022-09-13T09:18:30.922Z,73.87
2022-09-13T09:20:59.437Z,74.63
2022-09-13T09:23:31.878Z,74.05
2022-09-13T09:26:14.568Z,74.44
2022-09-13T09:28:41.135Z,74.31
2022-09-13T09:31:12.891Z,73.97
2022-09-13T09:33:55.747Z,74.27
2022-09-13T09:36:31.263Z,72.36
2022-09-13T09:38:59.163Z,73.24
2022-09-13T09:41:30.127Z,72.19
2022-09-13T09:44:06.103Z,74.94
2022-09-13T09:46:37.326Z,72.99
2022-09-13T09:49:13.916Z,71.34
2022-09-13T09:51:40.481Z,71.03
2022-09-13T09:54:11.499Z,73.39
2022-09-13T09:56:53.321Z,72.11
2022-09-13T09:59:26.835Z,70.98
2022-09-13T10:01:53.462Z,70.56
2022-09-13T10:04:22.573Z,70.31
2022-09-13T10:06:49.698Z,69.29
2022-09-13T10:09:19.845Z,68.40
2022-09-13T10:11:49.924Z,68.07
2022-09-13T10:14:37.911Z,68.84
2022-09-13T10:17:13.536Z,70.29
2022-09-13T10:19:40.063Z,70.08
2022-09-13T10:22:11.284Z,69.31
2022-09-13T10:24:39.572Z,68.51
2022-09-13T10:27:20.358Z,68.71
2022-09-13T10:29:49.010Z,70.55
2022-09-13T10:32:15.830Z,67.89
2022-09-13T10:34:45.126Z,69.14
2022-09-13T10:37:16.003Z,69.89
2022-09-13T10:39:55.653Z,70.91
2022-09-13T10:42:25.158Z,70.23
2022-09-13T10:44:55.313Z,70.80
2022-09-13T10:47:25.524Z,71.93
2022-09-13T10:49:54.721Z,73.21
2022-09-13T10:52:30.342Z,72.35
2022-09-13T10:55:23.428Z,72.49
2022-09-13T10:57:51.699Z,71.34
2022-09-13T11:00:20.343Z,72.35
2022-09-13T11:03:05.993Z,72.04
2022-09-13T11:05:39.595Z,73.72
2022-09-13T11:08:18.822Z,74.52
2022-09-13T11:10:58.545Z,74.41
2022-09-13T11:13:34.631Z,73.72
2022-09-13T11:16:15.719Z,74.03
2022-09-13T11:18:59.280Z,73.33
2022-09-13T11:21:40.126Z,73.62
2022-09-13T11:24:24.167Z,73.53
2022-09-13T11:27:00.181Z,74.17
2022-09-13T11:29:40.122Z,73.77
2022-09-13T11:32:20.966Z,73.18
2022-09-13T11:35:02.527Z,73.20
2022-09-13T11:37:42.214Z,73.68
2022-09-13T11:40:28.375Z,75.07
2022-09-13T11:43:08.770Z,75.31
2022-09-13T11:45:42.530Z,74.57
2022-09-13T11:48:30.446Z,75.84
2022-09-13T11:51:06.435Z,75.83
2022-09-13T11:53:57.470Z,74.69
2022-09-13T11:56:29.246Z,76.13
2022-09-13T11:59:00.904Z,75.75
2022-09-13T12:01:33.903Z,77.29
2022-09-13T12:04:03.893Z,76.08
2022-09-13T12:06:35.492Z,76.00
2022-09-13T12:09:07.333Z,72.68
2022-09-13T12:11:34.736Z,72.17
2022-09-13T12:14:05.049Z,70.53
2022-09-13T12:16:36.429Z,70.06
2022-09-13T12:19:07.280Z,69.09
2022-09-13T12:21:38.011Z,69.46
2022-09-13T12:24:12.962Z,70.33
2022-09-13T12:26:44.814Z,68.88
2022-09-13T12:29:17.960Z,69.46
2022-09-13T12:31:44.814Z,68.98
2022-09-13T12:34:20.085Z,69.60
2022-09-13T12:37:09.910Z,69.15
2022-09-13T12:40:11.700Z,68.54
2022-09-13T12:43:06.599Z,69.79
2022-09-13T12:45:47.176Z,69.51
2022-09-13T12:48:38.818Z,68.90
2022-09-13T12:51:15.311Z,70.92
2022-09-13T12:54:30.397Z,70.99
2022-09-13T12:57:10.569Z,70.86
2022-09-13T12:59:54.874Z,71.53
2022-09-13T13:02:30.896Z,71.56
2022-09-13T13:05:01.208Z,72.00
2022-09-13T13:07:30.418Z,73.74
2022-09-13T13:09:57.949Z,72.51
2022-09-13T13:12:30.920Z,73.55
2022-09-13T13:14:59.026Z,75.20
2022-09-13T13:17:44.061Z,73.10
2022-09-13T13:20:45.846Z,74.11
2022-09-13T13:23:19.745Z,73.24
2022-09-13T13:26:07.817Z,73.75
2022-09-13T13:29:17.720Z,72.26
2022-09-13T13:32:09.214Z,72.91
2022-09-13T13:34:43.586Z,72.41
2022-09-13T13:37:33.905Z,74.30
2022-09-13T13:43:11.600Z,76.34
2022-09-13T13:45:38.197Z,75.53
2022-09-13T13:48:11.507Z,75.57
2022-09-13T13:51:17.747Z,76.77
2022-09-13T13:53:48.483Z,76.85
2022-09-13T13:56:22.317Z,77.16
2022-09-13T13:58:57.324Z,78.41
2022-09-13T14:01:26.739Z,77.98
2022-09-13T14:04:27.687Z,79.17
2022-09-13T14:07:06.530Z,79.31
2022-09-13T14:09:47.186Z,78.84
2022-09-13T14:12:44.556Z,79.04
2022-09-13T14:15:26.467Z,80.61
2022-09-13T14:18:16.869Z,80.94
2022-09-13T14:20:58.187Z,81.59
2022-09-13T14:23:26.073Z,80.65
2022-09-13T14:25:55.947Z,81.37
2022-09-13T14:28:23.338Z,79.59
2022-09-13T14:30:54.458Z,80.56
2022-09-13T14:33:25.985Z,79.89
2022-09-13T14:36:02.197Z,82.04
2022-09-13T14:38:31.863Z,82.32
2022-09-13T14:41:00.174Z,82.53
2022-09-13T14:43:28.493Z,82.66
2022-09-13T14:46:01.436Z,82.41
2022-09-13T14:48:36.238Z,82.12
2022-09-13T14:51:08.665Z,83.08
2022-09-13T14:53:36.792Z,83.52
2022-09-13T14:56:06.978Z,83.30
2022-09-13T14:58:42.238Z,82.93
2022-09-13T15:01:11.430Z,83.84
2022-09-13T15:03:41.501Z,83.54
2022-09-13T15:06:19.338Z,83.38
2022-09-13T15:08:48.663Z,84.58
2022-09-13T15:11:26.607Z,84.46
2022-09-13T15:14:02.046Z,83.93
2022-09-13T15:16:30.581Z,83.90
2022-09-13T15:19:17.180Z,83.21
2022-09-13T15:21:43.810Z,83.81
2022-09-13T15:24:21.522Z,83.38
2022-09-13T15:26:48.073Z,83.22
2022-09-13T15:29:19.250Z,84.06
2022-09-13T15:31:45.816Z,84.10
2022-09-13T15:34:19.822Z,83.01
2022-09-13T15:36:47.563Z,81.56
2022-09-13T15:39:17.743Z,80.18
2022-09-13T15:41:52.458Z,82.00
2022-09-13T15:44:19.092Z,80.86
2022-09-13T15:46:48.582Z,81.37
2022-09-13T15:49:16.819Z,81.73
2022-09-13T15:51:44.379Z,82.40
2022-09-13T15:54:12.521Z,81.22
2022-09-13T15:56:43.692Z,83.15
2022-09-13T15:59:13.445Z,82.96
2022-09-13T16:01:40.439Z,83.07
2022-09-13T16:04:07.076Z,82.72
2022-09-13T16:06:33.907Z,83.88
2022-09-13T16:09:00.484Z,83.36
2022-09-13T16:11:27.082Z,83.46
2022-09-13T16:13:54.948Z,84.07
2022-09-13T16:16:21.541Z,84.33
2022-09-13T16:18:48.128Z,84.69
2022-09-13T16:21:14.672Z,85.33
2022-09-13T16:23:41.209Z,84.75
2022-09-13T16:26:07.751Z,85.20
2022-09-13T16:28:34.272Z,86.07
2022-09-13T16:31:02.237Z,86.01
2022-09-13T16:33:28.827Z,86.28
2022-09-13T16:35:58.048Z,86.42
2022-09-13T16:38:28.076Z,86.44
2022-09-13T16:40:54.604Z,88.08
2022-09-13T16:43:22.143Z,87.92
2022-09-13T16:45:48.709Z,87.46
2022-09-13T16:48:16.666Z,87.07
2022-09-13T16:50:43.172Z,87.39
2022-09-13T16:53:09.705Z,87.66
2022-09-13T16:55:36.429Z,87.68
2022-09-13T16:58:03.103Z,87.88
2022-09-13T17:00:29.670Z,88.24
2022-09-13T17:02:56.367Z,88.14
2022-09-13T17:05:25.112Z,88.78
2022-09-13T17:07:52.752Z,88.88
2022-09-13T17:10:20.488Z,89.12
2022-09-13T17:12:47.079Z,89.48
2022-09-13T17:15:13.905Z,89.42
2022-09-13T17:17:40.439Z,89.52
2022-09-13T17:20:09.447Z,90.09
2022-09-13T17:22:37.432Z,90.05
2022-09-13T17:25:05.092Z,90.09
2022-09-13T17:27:31.626Z,90.67
2022-09-13T17:29:58.222Z,90.59
2022-09-13T17:32:24.798Z,90.58
2022-09-13T17:34:51.361Z,90.59
2022-09-13T17:37:17.877Z,90.44
2022-09-13T17:39:46.124Z,90.76
2022-09-13T17:42:12.769Z,90.48
2022-09-13T17:44:39.369Z,90.63
2022-09-13T17:47:06.199Z,90.81
2022-09-13T17:49:32.730Z,90.99
2022-09-13T17:51:59.236Z,92.18
2022-09-13T17:54:25.781Z,92.03
2022-09-13T17:56:53.640Z,91.96
2022-09-13T17:59:21.852Z,91.54
2022-09-13T18:01:49.933Z,91.27
2022-09-13T18:04:19.990Z,91.42
2022-09-13T18:06:46.837Z,91.97
2022-09-13T18:09:14.551Z,92.02
2022-09-13T18:11:41.311Z,92.46
2022-09-13T18:14:11.542Z,92.23
2022-09-13T18:16:38.062Z,92.50
2022-09-13T18:19:04.705Z,92.55
2022-09-13T18:21:31.255Z,93.05
2022-09-13T18:23:59.460Z,93.39
2022-09-13T18:26:27.578Z,93.91
2022-09-13T18:28:55.411Z,93.31
2022-09-13T18:31:24.679Z,93.58
2022-09-13T18:33:55.250Z,93.52
2022-09-13T18:36:21.903Z,94.63
2022-09-13T18:38:49.281Z,94.39
2022-09-13T18:41:18.672Z,94.11
2022-09-13T18:43:46.441Z,94.19
2022-09-13T18:46:14.666Z,94.56
2022-09-13T18:48:45.615Z,94.73
2022-09-13T18:51:15.338Z,94.63
2022-09-13T18:53:42.399Z,94.89
2022-09-13T18:56:11.112Z,94.76
2022-09-13T18:58:39.588Z,94.20
2022-09-13T19:01:08.332Z,93.95
2022-09-13T19:03:35.997Z,94.16
2022-09-13T19:06:12.044Z,94.21
2022-09-13T19:08:38.731Z,93.80
2022-09-13T19:11:06.259Z,93.84
2022-09-13T19:13:33.488Z,93.83
2022-09-13T19:16:01.096Z,94.20
2022-09-13T19:18:28.107Z,93.81
2022-09-13T19:21:01.398Z,93.57
2022-09-13T19:23:48.891Z,94.19
2022-09-13T19:26:17.912Z,94.25
2022-09-13T19:28:46.436Z,94.51
2022-09-13T19:31:14.173Z,94.51
2022-09-13T19:33:41.548Z,94.16
2022-09-13T19:36:11.156Z,94.13
2022-09-13T19:38:39.492Z,94.38
2022-09-13T19:41:08.204Z,94.21
2022-09-13T19:43:36.501Z,94.57
2022-09-13T19:46:05.043Z,94.17
2022-09-13T19:48:38.637Z,94.52
2022-09-13T19:51:08.366Z,94.48
2022-09-13T19:53:55.860Z,94.00
2022-09-13T19:56:26.463Z,93.91
2022-09-13T19:58:53.546Z,94.11
2022-09-13T20:01:22.262Z,94.62
2022-09-13T20:03:54.158Z,94.56
2022-09-13T20:06:21.565Z,94.90
2022-09-13T20:08:48.065Z,95.25
2022-09-13T20:11:14.898Z,95.16
2022-09-13T20:13:44.336Z,95.31
2022-09-13T20:16:17.947Z,95.42
2022-09-13T20:18:45.044Z,95.11
2022-09-13T20:21:12.607Z,95.12
2022-09-13T20:23:41.886Z,95.53
2022-09-13T20:26:14.399Z,95.75
2022-09-13T20:28:40.936Z,95.41
2022-09-13T20:31:09.861Z,94.83
2022-09-13T20:33:36.567Z,95.15
2022-09-13T20:36:03.712Z,95.12
2022-09-13T20:38:30.215Z,95.86
2022-09-13T20:41:02.416Z,96.16
2022-09-13T20:43:28.971Z,95.54
2022-09-13T20:45:55.952Z,95.81
2022-09-13T20:48:24.254Z,96.14
2022-09-13T20:50:56.372Z,95.57
2022-09-13T20:53:22.889Z,95.49
2022-09-13T20:55:49.411Z,95.73
2022-09-13T20:58:15.915Z,95.19
2022-09-13T21:00:42.439Z,95.19
2022-09-13T21:03:08.967Z,95.03
2022-09-13T21:05:37.815Z,95.02
2022-09-13T21:08:04.540Z,95.17
2022-09-13T21:10:31.057Z,96.27
2022-09-13T21:12:57.578Z,96.26
2022-09-13T21:15:24.082Z,96.95
2022-09-13T21:17:50.605Z,97.14
2022-09-13T21:20:17.114Z,97.33
2022-09-13T21:22:44.999Z,97.38
2022-09-13T21:25:11.527Z,97.74
2022-09-13T21:27:38.071Z,97.56
2022-09-13T21:30:05.645Z,97.88
2022-09-13T21:32:32.223Z,98.85
2022-09-13T21:34:58.735Z,98.33
2022-09-13T21:37:25.268Z,98.37
2022-09-13T21:39:53.235Z,98.16
2022-09-13T21:42:19.779Z,97.62
2022-09-13T21:44:46.271Z,97.63
2022-09-13T21:47:12.780Z,97.68
2022-09-13T21:49:39.321Z,97.65
2022-09-13T21:52:05.855Z,98.07
2022-09-13T21:54:32.363Z,97.66
2022-09-13T21:57:00.241Z,97.89
2022-09-13T21:59:26.797Z,97.80
2022-09-13T22:01:53.619Z,97.70
2022-09-13T22:04:21.762Z,97.67
2022-09-13T22:06:49.933Z,98.14
2022-09-13T22:09:16.488Z,97.90
2022-09-13T22:11:44.819Z,97.68
2022-09-13T22:14:14.446Z,97.18
2022-09-13T22:16:42.659Z,97.42
2022-09-13T22:19:12.222Z,97.37
2022-09-13T22:21:41.233Z,96.55
2022-09-13T22:24:09.869Z,96.76
2022-09-13T22:26:38.954Z,96.64
2022-09-13T22:29:06.218Z,96.45
2022-09-13T22:31:36.367Z,96.57
2022-09-13T22:34:03.855Z,96.66
2022-09-13T22:36:30.661Z,96.55
2022-09-13T22:38:57.606Z,96.93
2022-09-13T22:41:26.417Z,96.75
2022-09-13T22:43:53.685Z,96.88
2022-09-13T22:46:21.806Z,96.89
2022-09-13T22:48:50.163Z,97.03
2022-09-13T22:51:18.207Z,96.88
2022-09-13T22:53:46.786Z,96.99
2022-09-13T22:56:15.144Z,96.66
2022-09-13T22:58:42.468Z,96.43
2022-09-13T23:01:10.957Z,96.96
2022-09-13T23:03:38.815Z,96.87
2022-09-13T23:06:07.439Z,97.15
2022-09-13T23:08:34.884Z,96.99
2022-09-13T23:11:08.897Z,97.12
2022-09-13T23:13:35.710Z,97.31
2022-09-13T23:16:02.303Z,97.37
2022-09-13T23:18:28.823Z,97.13
2022-09-13T23:20:56.096Z,97.46
2022-09-13T23:23:24.198Z,97.84
2022-09-13T23:25:51.104Z,97.58
2022-09-13T23:28:17.662Z,97.71
2022-09-13T23:30:44.180Z,97.83
2022-09-13T23:33:10.730Z,97.52
2022-09-13T23:35:37.304Z,97.73
2022-09-13T23:38:04.014Z,98.17
2022-09-13T23:40:32.074Z,98.26
2022-09-13T23:42:58.686Z,97.77
2022-09-13T23:45:25.271Z,97.58
2022-09-13T23:47:51.905Z,97.60
2022-09-13T23:50:18.443Z,97.79
2022-09-13T23:52:44.970Z,97.41
2022-09-13T23:55:11.495Z,98.14
2022-09-13T23:57:39.434Z,97.91
